sensor_id;sensor_type;location;lat;lon;timestamp;P1;durP1;ratioP1;P2;durP2;ratioP2
12587;SDS011;6359;51.450;7.346;2023-06-22T00:02:03;8.48;;;6.13;;
12587;SDS011;6359;51.450;7.346;2023-06-22T00:04:30;6.50;;;5.07;;
12587;SDS011;6359;51.450;7.346;2023-06-22T00:06:57;7.88;;;5.82;;
12587;SDS011;6359;51.450;7.346;2023-06-22T00:09:25;6.45;;;5.43;;
12587;SDS011;6359;51.450;7.346;2023-06-22T00:11:52;7.43;;;5.55;;
12587;SDS011;6359;51.450;7.346;2023-06-22T00:14:19;7.22;;;5.40;;
12587;SDS011;6359;51.450;7.346;2023-06-22T00:16:46;7.38;;;5.20;;
12587;SDS011;6359;51.450;7.346;2023-06-22T00:19:13;9.23;;;5.55;;
12587;SDS011;6359;51.450;7.346;2023-06-22T00:21:40;8.65;;;4.97;;
12587;SDS011;6359;51.450;7.346;2023-06-22T00:24:08;8.80;;;5.50;;
12587;SDS011;6359;51.450;7.346;2023-06-22T00:26:36;9.00;;;5.57;;
12587;SDS011;6359;51.450;7.346;2023-06-22T00:29:03;7.22;;;4.93;;
12587;SDS011;6359;51.450;7.346;2023-06-22T00:31:30;8.30;;;4.90;;
12587;SDS011;6359;51.450;7.346;2023-06-22T00:33:56;6.82;;;5.07;;
12587;SDS011;6359;51.450;7.346;2023-06-22T00:36:23;8.30;;;5.07;;
12587;SDS011;6359;51.450;7.346;2023-06-22T00:38:50;7.88;;;4.70;;
12587;SDS011;6359;51.450;7.346;2023-06-22T00:41:17;7.43;;;5.00;;
12587;SDS011;6359;51.450;7.346;2023-06-22T00:43:45;10.18;;;5.60;;
12587;SDS011;6359;51.450;7.346;2023-06-22T00:46:12;8.73;;;4.65;;
12587;SDS011;6359;51.450;7.346;2023-06-22T00:48:39;7.20;;;4.78;;
12587;SDS011;6359;51.450;7.346;2023-06-22T00:51:06;8.63;;;5.20;;
12587;SDS011;6359;51.450;7.346;2023-06-22T00:53:34;7.75;;;4.65;;
12587;SDS011;6359;51.450;7.346;2023-06-22T00:56:02;6.88;;;4.68;;
12587;SDS011;6359;51.450;7.346;2023-06-22T00:58:30;8.38;;;5.40;;
12587;SDS011;6359;51.450;7.346;2023-06-22T01:00:59;4.18;;;3.75;;
12587;SDS011;6359;51.450;7.346;2023-06-22T01:03:27;7.05;;;4.68;;
12587;SDS011;6359;51.450;7.346;2023-06-22T01:05:54;9.85;;;5.75;;
12587;SDS011;6359;51.450;7.346;2023-06-22T01:08:29;9.93;;;5.53;;
12587;SDS011;6359;51.450;7.346;2023-06-22T01:11:16;10.02;;;6.13;;
12587;SDS011;6359;51.450;7.346;2023-06-22T01:13:50;8.82;;;6.53;;
12587;SDS011;6359;51.450;7.346;2023-06-22T01:16:25;10.70;;;7.25;;
12587;SDS011;6359;51.450;7.346;2023-06-22T01:18:55;12.13;;;6.75;;
12587;SDS011;6359;51.450;7.346;2023-06-22T01:21:24;10.50;;;7.03;;
12587;SDS011;6359;51.450;7.346;2023-06-22T01:23:56;9.98;;;6.90;;
12587;SDS011;6359;51.450;7.346;2023-06-22T01:26:35;10.90;;;6.70;;
12587;SDS011;6359;51.450;7.346;2023-06-22T01:29:09;10.85;;;7.25;;
12587;SDS011;6359;51.450;7.346;2023-06-22T01:31:38;9.00;;;5.97;;
12587;SDS011;6359;51.450;7.346;2023-06-22T01:34:06;6.97;;;6.28;;
12587;SDS011;6359;51.450;7.346;2023-06-22T01:36:35;10.90;;;6.70;;
12587;SDS011;6359;51.450;7.346;2023-06-22T01:39:02;10.23;;;7.18;;
12587;SDS011;6359;51.450;7.346;2023-06-22T01:41:33;8.45;;;6.68;;
12587;SDS011;6359;51.450;7.346;2023-06-22T01:44:02;8.60;;;6.13;;
12587;SDS011;6359;51.450;7.346;2023-06-22T01:46:32;8.48;;;6.95;;
12587;SDS011;6359;51.450;7.346;2023-06-22T01:49:00;8.70;;;6.18;;
12587;SDS011;6359;51.450;7.346;2023-06-22T01:51:28;9.88;;;6.00;;
12587;SDS011;6359;51.450;7.346;2023-06-22T01:53:55;9.60;;;6.05;;
12587;SDS011;6359;51.450;7.346;2023-06-22T01:56:22;8.50;;;6.05;;
12587;SDS011;6359;51.450;7.346;2023-06-22T01:58:50;11.00;;;6.45;;
12587;SDS011;6359;51.450;7.346;2023-06-22T02:01:24;9.20;;;5.78;;
12587;SDS011;6359;51.450;7.346;2023-06-22T02:04:02;9.10;;;5.85;;
12587;SDS011;6359;51.450;7.346;2023-06-22T02:06:33;14.93;;;6.07;;
12587;SDS011;6359;51.450;7.346;2023-06-22T02:09:05;9.10;;;6.05;;
12587;SDS011;6359;51.450;7.346;2023-06-22T02:11:35;8.10;;;5.95;;
12587;SDS011;6359;51.450;7.346;2023-06-22T02:14:03;9.55;;;5.97;;
12587;SDS011;6359;51.450;7.346;2023-06-22T02:16:31;6.43;;;5.00;;
12587;SDS011;6359;51.450;7.346;2023-06-22T02:18:59;9.93;;;5.78;;
12587;SDS011;6359;51.450;7.346;2023-06-22T02:21:29;8.77;;;6.32;;
12587;SDS011;6359;51.450;7.346;2023-06-22T02:23:57;8.07;;;5.88;;
12587;SDS011;6359;51.450;7.346;2023-06-22T02:26:24;7.57;;;6.75;;
12587;SDS011;6359;51.450;7.346;2023-06-22T02:28:52;9.38;;;6.43;;
12587;SDS011;6359;51.450;7.346;2023-06-22T02:31:19;8.93;;;6.38;;
12587;SDS011;6359;51.450;7.346;2023-06-22T02:33:46;8.70;;;6.03;;
12587;SDS011;6359;51.450;7.346;2023-06-22T02:36:14;9.10;;;6.15;;
12587;SDS011;6359;51.450;7.346;2023-06-22T02:38:42;8.68;;;6.72;;
12587;SDS011;6359;51.450;7.346;2023-06-22T02:41:13;8.30;;;6.95;;
12587;SDS011;6359;51.450;7.346;2023-06-22T02:43:43;11.20;;;7.80;;
12587;SDS011;6359;51.450;7.346;2023-06-22T02:46:10;11.82;;;7.72;;
12587;SDS011;6359;51.450;7.346;2023-06-22T02:48:38;13.93;;;7.55;;
12587;SDS011;6359;51.450;7.346;2023-06-22T02:51:05;9.85;;;7.38;;
12587;SDS011;6359;51.450;7.346;2023-06-22T02:53:33;13.82;;;7.10;;
12587;SDS011;6359;51.450;7.346;2023-06-22T02:56:01;8.70;;;6.55;;
12587;SDS011;6359;51.450;7.346;2023-06-22T02:58:30;8.20;;;6.90;;
12587;SDS011;6359;51.450;7.346;2023-06-22T03:00:58;9.57;;;7.28;;
12587;SDS011;6359;51.450;7.346;2023-06-22T03:03:29;11.63;;;7.85;;
12587;SDS011;6359;51.450;7.346;2023-06-22T03:05:56;11.95;;;7.68;;
12587;SDS011;6359;51.450;7.346;2023-06-22T03:08:23;13.43;;;7.80;;
12587;SDS011;6359;51.450;7.346;2023-06-22T03:10:52;8.82;;;7.43;;
12587;SDS011;6359;51.450;7.346;2023-06-22T03:13:19;10.25;;;7.60;;
12587;SDS011;6359;51.450;7.346;2023-06-22T03:15:45;9.45;;;6.50;;
12587;SDS011;6359;51.450;7.346;2023-06-22T03:18:12;6.80;;;6.13;;
12587;SDS011;6359;51.450;7.346;2023-06-22T03:20:40;8.20;;;6.78;;
12587;SDS011;6359;51.450;7.346;2023-06-22T03:23:07;9.25;;;7.40;;
12587;SDS011;6359;51.450;7.346;2023-06-22T03:25:35;10.98;;;8.05;;
12587;SDS011;6359;51.450;7.346;2023-06-22T03:28:03;11.57;;;8.68;;
12587;SDS011;6359;51.450;7.346;2023-06-22T03:30:30;13.15;;;8.50;;
12587;SDS011;6359;51.450;7.346;2023-06-22T03:32:57;9.52;;;8.15;;
12587;SDS011;6359;51.450;7.346;2023-06-22T03:35:24;11.88;;;9.10;;
12587;SDS011;6359;51.450;7.346;2023-06-22T03:37:51;10.82;;;8.73;;
12587;SDS011;6359;51.450;7.346;2023-06-22T03:40:18;13.95;;;9.82;;
12587;SDS011;6359;51.450;7.346;2023-06-22T03:42:45;12.45;;;9.80;;
12587;SDS011;6359;51.450;7.346;2023-06-22T03:45:14;12.25;;;9.40;;
12587;SDS011;6359;51.450;7.346;2023-06-22T03:47:41;11.60;;;10.00;;
12587;SDS011;6359;51.450;7.346;2023-06-22T03:50:08;10.73;;;9.63;;
12587;SDS011;6359;51.450;7.346;2023-06-22T03:52:35;12.25;;;9.35;;
12587;SDS011;6359;51.450;7.346;2023-06-22T03:55:02;15.32;;;9.82;;
12587;SDS011;6359;51.450;7.346;2023-06-22T03:57:30;13.07;;;9.50;;
12587;SDS011;6359;51.450;7.346;2023-06-22T03:59:57;10.88;;;8.95;;
12587;SDS011;6359;51.450;7.346;2023-06-22T04:02:25;13.02;;;9.45;;
12587;SDS011;6359;51.450;7.346;2023-06-22T04:04:52;15.65;;;9.55;;
12587;SDS011;6359;51.450;7.346;2023-06-22T04:07:19;16.35;;;9.98;;
12587;SDS011;6359;51.450;7.346;2023-06-22T04:09:46;15.93;;;11.23;;
12587;SDS011;6359;51.450;7.346;2023-06-22T04:12:13;15.43;;;10.98;;
12587;SDS011;6359;51.450;7.346;2023-06-22T04:14:40;13.60;;;9.65;;
12587;SDS011;6359;51.450;7.346;2023-06-22T04:17:07;15.35;;;9.82;;
12587;SDS011;6359;51.450;7.346;2023-06-22T04:19:35;12.00;;;10.70;;
12587;SDS011;6359;51.450;7.346;2023-06-22T04:22:02;14.68;;;9.57;;
12587;SDS011;6359;51.450;7.346;2023-06-22T04:24:31;13.77;;;10.32;;
12587;SDS011;6359;51.450;7.346;2023-06-22T04:26:58;16.40;;;9.80;;
12587;SDS011;6359;51.450;7.346;2023-06-22T04:29:29;14.75;;;10.40;;
12587;SDS011;6359;51.450;7.346;2023-06-22T04:31:56;13.77;;;9.80;;
12587;SDS011;6359;51.450;7.346;2023-06-22T04:34:28;12.93;;;9.15;;
12587;SDS011;6359;51.450;7.346;2023-06-22T04:36:56;13.38;;;9.90;;
12587;SDS011;6359;51.450;7.346;2023-06-22T04:39:24;9.90;;;8.70;;
12587;SDS011;6359;51.450;7.346;2023-06-22T04:41:52;13.35;;;9.45;;
12587;SDS011;6359;51.450;7.346;2023-06-22T04:44:20;14.75;;;8.98;;
12587;SDS011;6359;51.450;7.346;2023-06-22T04:46:50;12.95;;;8.55;;
12587;SDS011;6359;51.450;7.346;2023-06-22T04:49:19;12.18;;;9.20;;
12587;SDS011;6359;51.450;7.346;2023-06-22T04:51:47;10.73;;;9.10;;
12587;SDS011;6359;51.450;7.346;2023-06-22T04:54:18;12.70;;;8.73;;
12587;SDS011;6359;51.450;7.346;2023-06-22T04:56:45;10.82;;;8.98;;
12587;SDS011;6359;51.450;7.346;2023-06-22T04:59:13;13.18;;;9.65;;
12587;SDS011;6359;51.450;7.346;2023-06-22T05:01:43;14.65;;;9.93;;
12587;SDS011;6359;51.450;7.346;2023-06-22T05:04:10;17.92;;;10.57;;
12587;SDS011;6359;51.450;7.346;2023-06-22T05:06:37;11.93;;;9.65;;
12587;SDS011;6359;51.450;7.346;2023-06-22T05:09:04;12.23;;;9.35;;
12587;SDS011;6359;51.450;7.346;2023-06-22T05:11:33;10.57;;;9.20;;
12587;SDS011;6359;51.450;7.346;2023-06-22T05:14:00;11.93;;;8.68;;
12587;SDS011;6359;51.450;7.346;2023-06-22T05:16:27;16.17;;;9.27;;
12587;SDS011;6359;51.450;7.346;2023-06-22T05:18:54;14.05;;;8.35;;
12587;SDS011;6359;51.450;7.346;2023-06-22T05:21:22;9.32;;;8.25;;
12587;SDS011;6359;51.450;7.346;2023-06-22T05:23:49;14.20;;;10.32;;
12587;SDS011;6359;51.450;7.346;2023-06-22T05:26:16;13.90;;;9.00;;
12587;SDS011;6359;51.450;7.346;2023-06-22T05:28:45;11.02;;;9.48;;
12587;SDS011;6359;51.450;7.346;2023-06-22T05:31:12;14.20;;;8.82;;
12587;SDS011;6359;51.450;7.346;2023-06-22T05:33:40;13.90;;;9.45;;
12587;SDS011;6359;51.450;7.346;2023-06-22T05:36:06;11.55;;;9.20;;
12587;SDS011;6359;51.450;7.346;2023-06-22T05:38:34;18.27;;;8.80;;
12587;SDS011;6359;51.450;7.346;2023-06-22T05:41:00;15.93;;;9.48;;
12587;SDS011;6359;51.450;7.346;2023-06-22T05:43:28;11.48;;;8.88;;
12587;SDS011;6359;51.450;7.346;2023-06-22T05:45:56;9.50;;;8.20;;
12587;SDS011;6359;51.450;7.346;2023-06-22T05:48:23;13.93;;;8.90;;
12587;SDS011;6359;51.450;7.346;2023-06-22T05:50:50;9.48;;;7.68;;
12587;SDS011;6359;51.450;7.346;2023-06-22T05:53:17;12.40;;;8.52;;
12587;SDS011;6359;51.450;7.346;2023-06-22T05:55:43;12.60;;;8.35;;
12587;SDS011;6359;51.450;7.346;2023-06-22T05:58:10;13.93;;;8.52;;
12587;SDS011;6359;51.450;7.346;2023-06-22T06:00:38;10.57;;;8.30;;
12587;SDS011;6359;51.450;7.346;2023-06-22T06:03:06;10.27;;;7.82;;
12587;SDS011;6359;51.450;7.346;2023-06-22T06:05:34;8.82;;;7.72;;
12587;SDS011;6359;51.450;7.346;2023-06-22T06:08:01;9.10;;;8.05;;
12587;SDS011;6359;51.450;7.346;2023-06-22T06:10:30;12.02;;;8.90;;
12587;SDS011;6359;51.450;7.346;2023-06-22T06:12:58;12.52;;;8.98;;
12587;SDS011;6359;51.450;7.346;2023-06-22T06:15:27;9.45;;;8.15;;
12587;SDS011;6359;51.450;7.346;2023-06-22T06:17:53;14.93;;;8.77;;
12587;SDS011;6359;51.450;7.346;2023-06-22T06:20:22;12.77;;;8.55;;
12587;SDS011;6359;51.450;7.346;2023-06-22T06:22:50;10.27;;;9.15;;
12587;SDS011;6359;51.450;7.346;2023-06-22T06:25:17;21.95;;;9.27;;
12587;SDS011;6359;51.450;7.346;2023-06-22T06:27:47;11.60;;;9.23;;
12587;SDS011;6359;51.450;7.346;2023-06-22T06:30:15;12.13;;;8.70;;
12587;SDS011;6359;51.450;7.346;2023-06-22T06:32:43;12.07;;;9.88;;
12587;SDS011;6359;51.450;7.346;2023-06-22T06:35:10;12.05;;;8.48;;
12587;SDS011;6359;51.450;7.346;2023-06-22T06:37:40;9.93;;;8.75;;
12587;SDS011;6359;51.450;7.346;2023-06-22T06:40:09;9.88;;;8.57;;
12587;SDS011;6359;51.450;7.346;2023-06-22T06:42:37;10.00;;;8.63;;
12587;SDS011;6359;51.450;7.346;2023-06-22T06:45:05;11.18;;;9.27;;
12587;SDS011;6359;51.450;7.346;2023-06-22T06:47:33;13.48;;;8.35;;
12587;SDS011;6359;51.450;7.346;2023-06-22T06:49:59;14.68;;;9.48;;
12587;SDS011;6359;51.450;7.346;2023-06-22T06:52:26;13.70;;;8.90;;
12587;SDS011;6359;51.450;7.346;2023-06-22T06:54:55;12.93;;;9.18;;
12587;SDS011;6359;51.450;7.346;2023-06-22T06:57:21;12.90;;;8.50;;
12587;SDS011;6359;51.450;7.346;2023-06-22T06:59:48;12.73;;;8.65;;
12587;SDS011;6359;51.450;7.346;2023-06-22T07:02:15;11.75;;;8.27;;
12587;SDS011;6359;51.450;7.346;2023-06-22T07:04:42;11.05;;;8.95;;
12587;SDS011;6359;51.450;7.346;2023-06-22T07:07:09;12.73;;;9.77;;
12587;SDS011;6359;51.450;7.346;2023-06-22T07:09:36;10.05;;;8.93;;
12587;SDS011;6359;51.450;7.346;2023-06-22T07:12:05;11.50;;;10.25;;
12587;SDS011;6359;51.450;7.346;2023-06-22T07:14:32;12.93;;;9.52;;
12587;SDS011;6359;51.450;7.346;2023-06-22T07:16:59;16.55;;;9.77;;
12587;SDS011;6359;51.450;7.346;2023-06-22T07:19:26;13.30;;;9.18;;
12587;SDS011;6359;51.450;7.346;2023-06-22T07:21:54;10.52;;;9.48;;
12587;SDS011;6359;51.450;7.346;2023-06-22T07:24:21;10.88;;;9.05;;
12587;SDS011;6359;51.450;7.346;2023-06-22T07:26:49;10.98;;;9.35;;
12587;SDS011;6359;51.450;7.346;2023-06-22T07:29:17;11.00;;;8.93;;
12587;SDS011;6359;51.450;7.346;2023-06-22T07:31:45;13.45;;;9.43;;
12587;SDS011;6359;51.450;7.346;2023-06-22T07:34:12;10.52;;;9.45;;
12587;SDS011;6359;51.450;7.346;2023-06-22T07:36:39;16.65;;;9.77;;
12587;SDS011;6359;51.450;7.346;2023-06-22T07:39:06;15.10;;;10.35;;
12587;SDS011;6359;51.450;7.346;2023-06-22T07:41:33;13.50;;;9.50;;
12587;SDS011;6359;51.450;7.346;2023-06-22T07:43:59;21.70;;;10.25;;
12587;SDS011;6359;51.450;7.346;2023-06-22T07:46:28;12.23;;;9.57;;
12587;SDS011;6359;51.450;7.346;2023-06-22T07:48:55;12.68;;;10.50;;
12587;SDS011;6359;51.450;7.346;2023-06-22T07:51:22;12.57;;;10.18;;
12587;SDS011;6359;51.450;7.346;2023-06-22T07:53:49;11.75;;;9.80;;
12587;SDS011;6359;51.450;7.346;2023-06-22T07:56:16;10.48;;;9.45;;
12587;SDS011;6359;51.450;7.346;2023-06-22T07:58:44;18.55;;;10.98;;
12587;SDS011;6359;51.450;7.346;2023-06-22T08:01:11;13.00;;;10.98;;
12587;SDS011;6359;51.450;7.346;2023-06-22T08:03:39;12.05;;;10.27;;
12587;SDS011;6359;51.450;7.346;2023-06-22T08:06:07;13.82;;;11.38;;
12587;SDS011;6359;51.450;7.346;2023-06-22T08:08:35;12.55;;;11.25;;
12587;SDS011;6359;51.450;7.346;2023-06-22T08:11:02;15.80;;;11.60;;
12587;SDS011;6359;51.450;7.346;2023-06-22T08:13:29;17.45;;;12.50;;
12587;SDS011;6359;51.450;7.346;2023-06-22T08:15:56;15.68;;;11.73;;
12587;SDS011;6359;51.450;7.346;2023-06-22T08:18:23;20.75;;;13.75;;
12587;SDS011;6359;51.450;7.346;2023-06-22T08:20:51;15.23;;;12.82;;
12587;SDS011;6359;51.450;7.346;2023-06-22T08:23:17;13.45;;;12.15;;
12587;SDS011;6359;51.450;7.346;2023-06-22T08:25:45;18.52;;;12.07;;
12587;SDS011;6359;51.450;7.346;2023-06-22T08:28:13;15.73;;;12.27;;
12587;SDS011;6359;51.450;7.346;2023-06-22T08:30:40;15.38;;;12.38;;
12587;SDS011;6359;51.450;7.346;2023-06-22T08:33:06;18.60;;;12.73;;
12587;SDS011;6359;51.450;7.346;2023-06-22T08:35:33;14.23;;;11.98;;
12587;SDS011;6359;51.450;7.346;2023-06-22T08:38:02;15.77;;;12.02;;
12587;SDS011;6359;51.450;7.346;2023-06-22T08:40:28;16.75;;;11.55;;
12587;SDS011;6359;51.450;7.346;2023-06-22T08:42:55;16.48;;;11.25;;
12587;SDS011;6359;51.450;7.346;2023-06-22T08:45:22;16.08;;;11.43;;
12587;SDS011;6359;51.450;7.346;2023-06-22T08:47:49;13.27;;;10.20;;
12587;SDS011;6359;51.450;7.346;2023-06-22T08:50:16;10.75;;;9.55;;
12587;SDS011;6359;51.450;7.346;2023-06-22T08:52:43;12.15;;;10.13;;
12587;SDS011;6359;51.450;7.346;2023-06-22T08:55:12;10.75;;;9.05;;
12587;SDS011;6359;51.450;7.346;2023-06-22T08:57:39;13.00;;;9.77;;
12587;SDS011;6359;51.450;7.346;2023-06-22T09:00:06;9.35;;;8.25;;
12587;SDS011;6359;51.450;7.346;2023-06-22T09:02:45;9.15;;;8.25;;
12587;SDS011;6359;51.450;7.346;2023-06-22T09:05:12;8.18;;;7.22;;
12587;SDS011;6359;51.450;7.346;2023-06-22T09:07:39;10.88;;;7.35;;
12587;SDS011;6359;51.450;7.346;2023-06-22T09:10:07;9.40;;;7.32;;
12587;SDS011;6359;51.450;7.346;2023-06-22T09:12:35;9.10;;;7.22;;
12587;SDS011;6359;51.450;7.346;2023-06-22T09:15:03;13.27;;;7.25;;
12587;SDS011;6359;51.450;7.346;2023-06-22T09:17:32;11.65;;;7.13;;
12587;SDS011;6359;51.450;7.346;2023-06-22T09:20:00;7.97;;;6.47;;
12587;SDS011;6359;51.450;7.346;2023-06-22T09:22:30;10.05;;;6.30;;
12587;SDS011;6359;51.450;7.346;2023-06-22T09:24:57;6.40;;;5.80;;
12587;SDS011;6359;51.450;7.346;2023-06-22T09:27:25;8.82;;;5.97;;
12587;SDS011;6359;51.450;7.346;2023-06-22T09:29:53;6.50;;;5.78;;
12587;SDS011;6359;51.450;7.346;2023-06-22T09:32:20;6.07;;;5.47;;
12587;SDS011;6359;51.450;7.346;2023-06-22T09:34:47;6.03;;;5.43;;
12587;SDS011;6359;51.450;7.346;2023-06-22T09:37:14;9.02;;;5.45;;
12587;SDS011;6359;51.450;7.346;2023-06-22T09:39:41;6.82;;;5.50;;
12587;SDS011;6359;51.450;7.346;2023-06-22T09:42:08;7.32;;;5.88;;
12587;SDS011;6359;51.450;7.346;2023-06-22T09:44:35;8.60;;;5.40;;
12587;SDS011;6359;51.450;7.346;2023-06-22T09:47:04;10.18;;;4.90;;
12587;SDS011;6359;51.450;7.346;2023-06-22T09:49:31;8.00;;;5.40;;
12587;SDS011;6359;51.450;7.346;2023-06-22T09:51:58;12.98;;;5.65;;
12587;SDS011;6359;51.450;7.346;2023-06-22T09:54:25;9.25;;;5.50;;
12587;SDS011;6359;51.450;7.346;2023-06-22T09:56:52;9.80;;;5.40;;
12587;SDS011;6359;51.450;7.346;2023-06-22T09:59:19;15.57;;;5.18;;
12587;SDS011;6359;51.450;7.346;2023-06-22T10:01:45;6.93;;;5.55;;
12587;SDS011;6359;51.450;7.346;2023-06-22T10:04:14;9.65;;;6.35;;
12587;SDS011;6359;51.450;7.346;2023-06-22T10:06:40;6.15;;;5.53;;
12587;SDS011;6359;51.450;7.346;2023-06-22T10:09:07;7.78;;;5.30;;
12587;SDS011;6359;51.450;7.346;2023-06-22T10:11:34;10.32;;;5.88;;
12587;SDS011;6359;51.450;7.346;2023-06-22T10:14:02;11.07;;;5.85;;
12587;SDS011;6359;51.450;7.346;2023-06-22T10:16:32;7.38;;;5.38;;
12587;SDS011;6359;51.450;7.346;2023-06-22T10:19:00;6.47;;;5.88;;
12587;SDS011;6359;51.450;7.346;2023-06-22T10:21:29;6.07;;;5.47;;
12587;SDS011;6359;51.450;7.346;2023-06-22T10:23:56;9.32;;;6.22;;
12587;SDS011;6359;51.450;7.346;2023-06-22T10:26:24;10.65;;;6.40;;
12587;SDS011;6359;51.450;7.346;2023-06-22T10:28:53;7.03;;;5.78;;
12587;SDS011;6359;51.450;7.346;2023-06-22T10:31:20;8.02;;;6.95;;
12587;SDS011;6359;51.450;7.346;2023-06-22T10:33:47;6.35;;;5.85;;
12587;SDS011;6359;51.450;7.346;2023-06-22T10:36:15;7.75;;;6.38;;
12587;SDS011;6359;51.450;7.346;2023-06-22T10:38:43;7.75;;;6.38;;
12587;SDS011;6359;51.450;7.346;2023-06-22T10:41:10;8.38;;;6.70;;
12587;SDS011;6359;51.450;7.346;2023-06-22T10:43:37;8.45;;;6.63;;
12587;SDS011;6359;51.450;7.346;2023-06-22T10:46:04;9.38;;;6.72;;
12587;SDS011;6359;51.450;7.346;2023-06-22T10:48:33;7.95;;;7.15;;
12587;SDS011;6359;51.450;7.346;2023-06-22T10:51:00;7.30;;;6.60;;
12587;SDS011;6359;51.450;7.346;2023-06-22T10:53:27;8.85;;;7.43;;
12587;SDS011;6359;51.450;7.346;2023-06-22T10:55:55;9.18;;;6.53;;
12587;SDS011;6359;51.450;7.346;2023-06-22T10:58:22;8.70;;;6.88;;
12587;SDS011;6359;51.450;7.346;2023-06-22T11:00:48;9.02;;;7.07;;
12587;SDS011;6359;51.450;7.346;2023-06-22T11:03:15;13.80;;;7.05;;
12587;SDS011;6359;51.450;7.346;2023-06-22T11:05:42;9.43;;;8.02;;
12587;SDS011;6359;51.450;7.346;2023-06-22T11:08:09;14.05;;;7.68;;
12587;SDS011;6359;51.450;7.346;2023-06-22T11:10:36;9.35;;;7.45;;
12587;SDS011;6359;51.450;7.346;2023-06-22T11:13:04;9.02;;;7.55;;
12587;SDS011;6359;51.450;7.346;2023-06-22T11:15:34;10.15;;;7.30;;
12587;SDS011;6359;51.450;7.346;2023-06-22T11:18:01;10.85;;;6.70;;
12587;SDS011;6359;51.450;7.346;2023-06-22T11:20:30;9.15;;;7.15;;
12587;SDS011;6359;51.450;7.346;2023-06-22T11:22:59;14.32;;;7.55;;
12587;SDS011;6359;51.450;7.346;2023-06-22T11:25:26;9.93;;;8.27;;
12587;SDS011;6359;51.450;7.346;2023-06-22T11:27:53;10.40;;;8.18;;
12587;SDS011;6359;51.450;7.346;2023-06-22T11:30:22;8.85;;;7.70;;
12587;SDS011;6359;51.450;7.346;2023-06-22T11:32:48;9.68;;;8.68;;
12587;SDS011;6359;51.450;7.346;2023-06-22T11:35:15;11.55;;;9.25;;
12587;SDS011;6359;51.450;7.346;2023-06-22T11:37:42;14.98;;;9.90;;
12587;SDS011;6359;51.450;7.346;2023-06-22T11:40:09;14.80;;;10.68;;
12587;SDS011;6359;51.450;7.346;2023-06-22T11:42:37;18.80;;;11.45;;
12587;SDS011;6359;51.450;7.346;2023-06-22T11:45:04;20.40;;;11.55;;
12587;SDS011;6359;51.450;7.346;2023-06-22T11:47:34;16.67;;;11.90;;
12587;SDS011;6359;51.450;7.346;2023-06-22T11:50:01;17.55;;;13.02;;
12587;SDS011;6359;51.450;7.346;2023-06-22T11:52:28;16.55;;;11.52;;
12587;SDS011;6359;51.450;7.346;2023-06-22T11:54:55;16.95;;;12.65;;
12587;SDS011;6359;51.450;7.346;2023-06-22T11:57:24;16.63;;;12.40;;
12587;SDS011;6359;51.450;7.346;2023-06-22T11:59:51;17.48;;;11.05;;
12587;SDS011;6359;51.450;7.346;2023-06-22T12:02:17;16.08;;;12.23;;
12587;SDS011;6359;51.450;7.346;2023-06-22T12:04:46;15.48;;;12.45;;
12587;SDS011;6359;51.450;7.346;2023-06-22T12:07:13;16.30;;;12.50;;
12587;SDS011;6359;51.450;7.346;2023-06-22T12:09:39;17.63;;;12.68;;
12587;SDS011;6359;51.450;7.346;2023-06-22T12:12:06;18.38;;;12.85;;
12587;SDS011;6359;51.450;7.346;2023-06-22T12:14:34;16.00;;;12.27;;
12587;SDS011;6359;51.450;7.346;2023-06-22T12:17:01;16.30;;;11.80;;
12587;SDS011;6359;51.450;7.346;2023-06-22T12:19:28;16.05;;;13.05;;
12587;SDS011;6359;51.450;7.346;2023-06-22T12:21:56;15.48;;;12.65;;
12587;SDS011;6359;51.450;7.346;2023-06-22T12:24:23;15.88;;;12.10;;
12587;SDS011;6359;51.450;7.346;2023-06-22T12:26:52;15.90;;;11.27;;
12587;SDS011;6359;51.450;7.346;2023-06-22T12:29:20;16.88;;;12.75;;
12587;SDS011;6359;51.450;7.346;2023-06-22T12:31:47;15.05;;;13.00;;
12587;SDS011;6359;51.450;7.346;2023-06-22T12:34:18;20.70;;;13.07;;
12587;SDS011;6359;51.450;7.346;2023-06-22T12:36:45;15.90;;;13.55;;
12587;SDS011;6359;51.450;7.346;2023-06-22T12:39:15;17.48;;;13.75;;
12587;SDS011;6359;51.450;7.346;2023-06-22T12:41:42;17.25;;;14.43;;
12587;SDS011;6359;51.450;7.346;2023-06-22T12:44:09;16.75;;;13.88;;
12587;SDS011;6359;51.450;7.346;2023-06-22T12:46:36;16.00;;;13.52;;
12587;SDS011;6359;51.450;7.346;2023-06-22T12:49:03;18.00;;;15.10;;
12587;SDS011;6359;51.450;7.346;2023-06-22T12:51:30;17.30;;;14.93;;
12587;SDS011;6359;51.450;7.346;2023-06-22T12:53:57;16.88;;;12.93;;
12587;SDS011;6359;51.450;7.346;2023-06-22T12:56:26;15.55;;;12.73;;
12587;SDS011;6359;51.450;7.346;2023-06-22T12:58:53;14.05;;;12.05;;
12587;SDS011;6359;51.450;7.346;2023-06-22T13:01:20;15.93;;;12.75;;
12587;SDS011;6359;51.450;7.346;2023-06-22T13:03:50;16.00;;;12.85;;
12587;SDS011;6359;51.450;7.346;2023-06-22T13:06:19;17.35;;;13.35;;
12587;SDS011;6359;51.450;7.346;2023-06-22T13:08:46;13.85;;;12.40;;
12587;SDS011;6359;51.450;7.346;2023-06-22T13:11:13;17.13;;;11.85;;
12587;SDS011;6359;51.450;7.346;2023-06-22T13:13:41;12.38;;;11.00;;
12587;SDS011;6359;51.450;7.346;2023-06-22T13:16:10;13.10;;;10.57;;
12587;SDS011;6359;51.450;7.346;2023-06-22T13:18:37;13.35;;;10.02;;
12587;SDS011;6359;51.450;7.346;2023-06-22T13:21:04;13.00;;;10.77;;
12587;SDS011;6359;51.450;7.346;2023-06-22T13:23:31;13.40;;;11.88;;
12587;SDS011;6359;51.450;7.346;2023-06-22T13:25:59;15.85;;;11.85;;
12587;SDS011;6359;51.450;7.346;2023-06-22T13:28:26;14.55;;;11.77;;
12587;SDS011;6359;51.450;7.346;2023-06-22T13:30:55;14.68;;;11.40;;
12587;SDS011;6359;51.450;7.346;2023-06-22T13:33:22;12.00;;;10.80;;
12587;SDS011;6359;51.450;7.346;2023-06-22T13:35:49;14.13;;;12.38;;
12587;SDS011;6359;51.450;7.346;2023-06-22T13:38:16;13.00;;;11.55;;
12587;SDS011;6359;51.450;7.346;2023-06-22T13:40:43;12.55;;;11.27;;
12587;SDS011;6359;51.450;7.346;2023-06-22T13:43:10;13.20;;;11.45;;
12587;SDS011;6359;51.450;7.346;2023-06-22T13:45:37;14.00;;;12.63;;
12587;SDS011;6359;51.450;7.346;2023-06-22T13:48:05;14.48;;;13.00;;
12587;SDS011;6359;51.450;7.346;2023-06-22T13:50:32;15.05;;;12.18;;
12587;SDS011;6359;51.450;7.346;2023-06-22T13:52:59;14.07;;;11.38;;
12587;SDS011;6359;51.450;7.346;2023-06-22T13:55:26;13.30;;;11.70;;
12587;SDS011;6359;51.450;7.346;2023-06-22T13:57:53;12.50;;;10.85;;
12587;SDS011;6359;51.450;7.346;2023-06-22T14:00:20;13.40;;;11.90;;
12587;SDS011;6359;51.450;7.346;2023-06-22T14:02:47;13.20;;;11.88;;
12587;SDS011;6359;51.450;7.346;2023-06-22T14:05:15;14.27;;;11.85;;
12587;SDS011;6359;51.450;7.346;2023-06-22T14:07:42;17.60;;;12.98;;
12587;SDS011;6359;51.450;7.346;2023-06-22T14:10:09;14.70;;;11.98;;
12587;SDS011;6359;51.450;7.346;2023-06-22T14:12:36;12.48;;;11.10;;
12587;SDS011;6359;51.450;7.346;2023-06-22T14:15:03;12.48;;;11.18;;
12587;SDS011;6359;51.450;7.346;2023-06-22T14:17:31;11.98;;;9.85;;
12587;SDS011;6359;51.450;7.346;2023-06-22T14:19:58;14.05;;;10.48;;
12587;SDS011;6359;51.450;7.346;2023-06-22T14:22:26;11.30;;;9.98;;
12587;SDS011;6359;51.450;7.346;2023-06-22T14:24:54;12.52;;;10.32;;
12587;SDS011;6359;51.450;7.346;2023-06-22T14:27:22;13.32;;;10.13;;
12587;SDS011;6359;51.450;7.346;2023-06-22T14:29:49;11.05;;;10.02;;
12587;SDS011;6359;51.450;7.346;2023-06-22T14:32:16;14.13;;;11.00;;
12587;SDS011;6359;51.450;7.346;2023-06-22T14:34:43;18.85;;;16.80;;
12587;SDS011;6359;51.450;7.346;2023-06-22T14:37:10;11.75;;;10.48;;
12587;SDS011;6359;51.450;7.346;2023-06-22T14:39:39;11.95;;;9.82;;
12587;SDS011;6359;51.450;7.346;2023-06-22T14:42:06;12.93;;;10.43;;
12587;SDS011;6359;51.450;7.346;2023-06-22T14:44:33;11.13;;;10.02;;
12587;SDS011;6359;51.450;7.346;2023-06-22T14:47:00;13.55;;;10.20;;
12587;SDS011;6359;51.450;7.346;2023-06-22T14:49:27;12.95;;;9.70;;
12587;SDS011;6359;51.450;7.346;2023-06-22T14:51:54;13.52;;;9.48;;